createdAt,value
2023-03-26T00:01:40.627Z,64.87
2023-03-26T00:04:10.612Z,65.47
2023-03-26T00:06:39.966Z,65.38
2023-03-26T00:09:25.552Z,64.33
2023-03-26T00:11:52.189Z,65.39
2023-03-26T00:14:18.802Z,65.27
2023-03-26T00:16:55.144Z,65.10
2023-03-26T00:19:23.261Z,64.56
2023-03-26T00:21:53.194Z,65.60
2023-03-26T00:24:19.788Z,65.93
2023-03-26T00:26:53.352Z,66.72
2023-03-26T00:29:20.371Z,66.58
2023-03-26T00:31:47.013Z,65.30
2023-03-26T00:34:18.870Z,66.54
2023-03-26T00:36:47.072Z,66.73
2023-03-26T00:39:19.098Z,66.23
2023-03-26T00:41:45.732Z,67.16
2023-03-26T00:44:12.350Z,67.24
2023-03-26T00:46:39.880Z,67.51
2023-03-26T00:49:11.011Z,66.51
2023-03-26T00:51:42.527Z,66.49
2023-03-26T00:54:11.890Z,65.87
2023-03-26T00:56:43.413Z,65.77
2023-03-26T00:59:10.258Z,66.85
2023-03-26T01:01:37.829Z,66.71
2023-03-26T01:04:42.777Z,66.64
2023-03-26T01:07:21.754Z,66.06
2023-03-26T01:09:54.769Z,66.09
2023-03-26T01:12:26.787Z,66.40
2023-03-26T01:15:00.930Z,65.81
2023-03-26T01:17:34.178Z,65.92
2023-03-26T01:20:13.060Z,65.71
2023-03-26T01:22:49.486Z,65.24
2023-03-26T01:25:18.940Z,65.27
2023-03-26T01:27:48.962Z,64.70
2023-03-26T01:30:49.649Z,65.05
2023-03-26T01:33:30.355Z,64.42
2023-03-26T01:36:16.490Z,65.15
2023-03-26T01:38:48.838Z,64.85
2023-03-26T01:41:32.382Z,64.83
2023-03-26T01:44:37.265Z,64.38
2023-03-26T01:47:06.325Z,64.69
2023-03-26T01:49:35.625Z,64.51
2023-03-26T01:52:02.321Z,64.31
2023-03-26T01:54:34.775Z,64.10
2023-03-26T01:57:13.397Z,64.01
2023-03-26T01:59:51.944Z,64.39
2023-03-26T02:02:43.529Z,64.21
2023-03-26T02:05:32.054Z,64.30
2023-03-26T02:08:27.014Z,64.74
2023-03-26T02:11:04.459Z,63.74
2023-03-26T02:13:32.383Z,64.63
2023-03-26T02:16:03.671Z,64.33
2023-03-26T02:18:41.630Z,64.99
2023-03-26T02:21:11.036Z,65.06
2023-03-26T02:23:58.120Z,64.89
2023-03-26T02:26:25.256Z,65.12
2023-03-26T02:28:51.950Z,65.26
2023-03-26T02:31:21.918Z,65.49
2023-03-26T02:33:50.645Z,65.51
2023-03-26T02:36:22.107Z,65.70
2023-03-26T02:38:51.669Z,65.58
2023-03-26T02:41:21.348Z,65.22
2023-03-26T02:43:48.022Z,65.21
2023-03-26T02:46:17.270Z,66.13
2023-03-26T02:48:44.160Z,65.44
2023-03-26T02:51:10.870Z,66.24
2023-03-26T02:53:41.337Z,66.07
2023-03-26T02:56:10.033Z,66.36
2023-03-26T02:58:36.612Z,66.62
2023-03-26T03:01:03.757Z,66.40
2023-03-26T03:03:30.640Z,67.64
2023-03-26T03:06:04.395Z,67.69
2023-03-26T03:08:31.094Z,68.29
2023-03-26T03:11:03.668Z,68.59
2023-03-26T03:13:32.522Z,68.75
2023-03-26T03:16:01.397Z,68.82
2023-03-26T03:18:30.402Z,69.67
2023-03-26T03:20:56.985Z,69.37
2023-03-26T03:23:25.914Z,69.26
2023-03-26T03:25:57.395Z,69.59
2023-03-26T03:28:27.920Z,69.99
2023-03-26T03:30:57.680Z,70.17
2023-03-26T03:33:24.590Z,69.33
2023-03-26T03:35:51.465Z,70.34
2023-03-26T03:38:19.232Z,69.73
2023-03-26T03:40:51.202Z,70.00
2023-03-26T03:43:20.310Z,70.96
2023-03-26T03:45:47.460Z,71.35
2023-03-26T03:48:14.123Z,70.94
2023-03-26T03:50:40.706Z,70.78
2023-03-26T03:53:07.281Z,71.58
2023-03-26T03:55:33.829Z,70.62
2023-03-26T03:58:00.682Z,71.12
2023-03-26T04:00:27.593Z,71.38
2023-03-26T04:02:54.683Z,71.98
2023-03-26T04:05:23.589Z,71.99
2023-03-26T04:07:50.304Z,72.66
2023-03-26T04:10:19.861Z,72.04
2023-03-26T04:12:46.551Z,70.95
2023-03-26T04:15:15.591Z,71.96
2023-03-26T04:17:45.426Z,71.80
2023-03-26T04:20:15.888Z,70.82
2023-03-26T04:22:45.884Z,71.03
2023-03-26T04:25:15.553Z,70.83
2023-03-26T04:27:43.402Z,71.53
2023-03-26T04:30:17.244Z,70.33
2023-03-26T04:32:46.747Z,69.49
2023-03-26T04:35:17.033Z,69.25
2023-03-26T04:37:46.005Z,68.64
2023-03-26T04:40:19.592Z,68.24
2023-03-26T04:42:48.809Z,67.88
2023-03-26T04:45:23.192Z,68.78
2023-03-26T04:47:50.681Z,68.14
2023-03-26T04:50:17.678Z,67.68
2023-03-26T04:52:45.503Z,67.72
2023-03-26T04:55:48.991Z,66.41
2023-03-26T04:58:19.524Z,66.14
2023-03-26T05:00:49.857Z,67.87
2023-03-26T05:03:16.667Z,67.01
2023-03-26T05:05:46.247Z,66.62
2023-03-26T05:08:15.670Z,66.77
2023-03-26T05:10:44.563Z,66.39
2023-03-26T05:13:11.565Z,66.28
2023-03-26T05:15:38.187Z,65.33
2023-03-26T05:18:04.938Z,64.87
2023-03-26T05:20:34.602Z,65.24
2023-03-26T05:23:04.255Z,65.69
2023-03-26T05:25:31.131Z,64.64
2023-03-26T05:27:57.830Z,64.61
2023-03-26T05:30:24.784Z,64.26
2023-03-26T05:32:58.798Z,63.54
2023-03-26T05:35:25.807Z,63.55
2023-03-26T05:37:57.268Z,63.88
2023-03-26T05:40:23.833Z,64.48
2023-03-26T05:42:52.851Z,64.52
2023-03-26T05:45:19.830Z,65.22
2023-03-26T05:47:47.414Z,63.33
2023-03-26T05:50:14.192Z,63.58
2023-03-26T05:52:41.132Z,64.74
2023-03-26T05:55:11.758Z,63.73
2023-03-26T05:57:39.309Z,62.33
2023-03-26T06:00:11.158Z,63.33
2023-03-26T06:02:42.441Z,62.55
2023-03-26T06:05:09.847Z,63.83
2023-03-26T06:07:36.556Z,62.55
2023-03-26T06:10:03.559Z,62.42
2023-03-26T06:12:30.461Z,62.06
2023-03-26T06:15:01.586Z,60.47
2023-03-26T06:17:28.144Z,61.05
2023-03-26T06:19:54.685Z,61.14
2023-03-26T06:22:23.725Z,60.27
2023-03-26T06:24:52.981Z,60.53
2023-03-26T06:27:21.920Z,58.75
2023-03-26T06:29:48.486Z,58.53
2023-03-26T06:32:20.075Z,59.38
2023-03-26T06:34:46.896Z,58.25
2023-03-26T06:37:13.589Z,57.85
2023-03-26T06:39:42.492Z,57.15
2023-03-26T06:42:11.586Z,56.20
2023-03-26T06:44:40.506Z,56.08
2023-03-26T06:47:07.069Z,54.58
2023-03-26T06:49:36.115Z,53.71
2023-03-26T06:52:05.215Z,53.01
2023-03-26T06:54:31.926Z,52.52
2023-03-26T06:56:59.873Z,52.54
2023-03-26T06:59:26.517Z,53.32
2023-03-26T07:01:55.392Z,52.00
2023-03-26T07:04:22.062Z,50.79
2023-03-26T07:06:48.757Z,50.63
2023-03-26T07:09:17.740Z,50.32
2023-03-26T07:11:49.055Z,51.17
2023-03-26T07:14:15.621Z,51.57
2023-03-26T07:16:45.375Z,51.44
2023-03-26T07:19:11.949Z,56.31
2023-03-26T07:21:38.886Z,51.12
2023-03-26T07:24:05.888Z,52.25
2023-03-26T07:27:01.653Z,51.66
2023-03-26T07:29:57.695Z,53.43
2023-03-26T07:32:40.414Z,54.50
2023-03-26T07:35:41.003Z,54.95
2023-03-26T07:38:12.914Z,53.53
2023-03-26T07:40:53.462Z,53.00
2023-03-26T07:43:25.519Z,53.97
2023-03-26T07:45:57.711Z,52.61
2023-03-26T07:48:29.788Z,54.27
2023-03-26T07:51:00.205Z,51.69
2023-03-26T07:53:30.177Z,52.25
2023-03-26T07:56:06.021Z,52.88
2023-03-26T07:59:19.402Z,52.95
2023-03-26T08:01:58.420Z,52.58
2023-03-26T08:04:56.097Z,52.20
2023-03-26T08:07:45.121Z,53.66
2023-03-26T08:10:27.495Z,52.34
2023-03-26T08:13:31.099Z,52.25
2023-03-26T08:16:54.443Z,53.71
2023-03-26T08:19:44.830Z,52.33
2023-03-26T08:22:20.840Z,50.75
2023-03-26T08:25:01.315Z,52.32
2023-03-26T08:27:43.349Z,51.28
2023-03-26T08:30:18.945Z,51.29
2023-03-26T08:32:54.486Z,51.28
2023-03-26T08:35:21.370Z,51.17
2023-03-26T08:37:51.839Z,52.26
2023-03-26T08:40:34.058Z,53.46
2023-03-26T08:43:09.216Z,53.10
2023-03-26T08:46:17.821Z,50.96
2023-03-26T08:49:00.434Z,52.13
2023-03-26T08:51:32.967Z,49.92
2023-03-26T08:54:28.059Z,49.84
2023-03-26T08:57:03.703Z,49.03
2023-03-26T08:59:32.783Z,50.30
2023-03-26T09:02:02.274Z,49.07
2023-03-26T09:04:52.232Z,48.75
2023-03-26T09:07:38.761Z,47.68
2023-03-26T09:10:27.088Z,47.33
2023-03-26T09:13:22.555Z,44.54
2023-03-26T09:16:01.212Z,43.37
2023-03-26T09:18:29.997Z,45.73
2023-03-26T09:21:28.792Z,44.33
2023-03-26T09:24:19.117Z,43.98
2023-03-26T09:26:55.061Z,43.08
2023-03-26T09:29:27.620Z,44.02
2023-03-26T09:32:14.961Z,42.43
2023-03-26T09:35:13.875Z,42.09
2023-03-26T09:38:11.293Z,43.05
2023-03-26T09:40:44.751Z,41.18
2023-03-26T09:43:54.389Z,42.59
2023-03-26T09:46:55.677Z,41.78
2023-03-26T09:49:55.780Z,42.13
2023-03-26T09:52:45.615Z,41.04
2023-03-26T09:55:44.750Z,40.24
2023-03-26T09:58:20.435Z,41.00
2023-03-26T10:00:52.510Z,40.53
2023-03-26T10:03:26.905Z,40.87
2023-03-26T10:06:21.445Z,41.61
2023-03-26T10:08:56.493Z,41.81
2023-03-26T10:11:29.118Z,44.06
2023-03-26T10:14:01.309Z,42.91
2023-03-26T10:16:37.022Z,44.94
2023-03-26T10:19:15.524Z,43.43
2023-03-26T10:22:14.786Z,43.65
2023-03-26T10:25:10.558Z,50.42
2023-03-26T10:27:48.751Z,61.11
2023-03-26T10:30:35.100Z,68.90
2023-03-26T10:33:10.737Z,71.60
2023-03-26T10:36:14.801Z,73.24
2023-03-26T10:38:44.333Z,77.33
2023-03-26T10:41:20.648Z,73.55
2023-03-26T10:44:05.582Z,76.17
2023-03-26T10:46:53.526Z,77.29
2023-03-26T10:50:01.717Z,79.43
2023-03-26T10:52:38.792Z,73.81
2023-03-26T10:55:24.302Z,73.06
2023-03-26T10:58:12.823Z,74.90
2023-03-26T11:00:58.476Z,77.91
2023-03-26T11:03:36.900Z,78.88
2023-03-26T11:06:28.122Z,77.23
2023-03-26T11:08:54.653Z,77.52
2023-03-26T11:11:27.107Z,74.41
2023-03-26T11:14:03.828Z,76.33
2023-03-26T11:17:07.226Z,77.32
2023-03-26T11:19:37.032Z,77.45
2023-03-26T11:22:12.390Z,78.02
2023-03-26T11:24:58.587Z,75.95
2023-03-26T11:27:40.671Z,76.43
2023-03-26T11:30:25.216Z,74.34
2023-03-26T11:33:14.370Z,74.66
2023-03-26T11:35:45.796Z,75.43
2023-03-26T11:38:20.990Z,76.65
2023-03-26T11:40:51.305Z,74.46
2023-03-26T11:43:24.589Z,73.94
2023-03-26T11:45:53.747Z,73.37
2023-03-26T11:48:30.554Z,62.00
2023-03-26T11:51:05.223Z,57.86
2023-03-26T11:53:34.646Z,59.23
2023-03-26T11:56:21.522Z,61.24
2023-03-26T11:59:14.818Z,61.26
2023-03-26T12:01:51.884Z,56.51
2023-03-26T12:04:35.315Z,61.71
2023-03-26T12:07:17.553Z,55.96
2023-03-26T12:09:53.351Z,62.27
2023-03-26T12:12:25.991Z,63.02
2023-03-26T12:14:55.091Z,59.82
2023-03-26T12:17:31.423Z,60.28
2023-03-26T12:19:59.161Z,55.61
2023-03-26T12:22:43.435Z,54.40
2023-03-26T12:25:17.976Z,59.82
2023-03-26T12:27:49.371Z,55.35
2023-03-26T12:30:23.833Z,54.80
2023-03-26T12:32:57.791Z,45.27
2023-03-26T12:35:30.222Z,46.86
2023-03-26T12:38:27.289Z,45.39
2023-03-26T12:44:42.719Z,50.01
2023-03-26T12:44:48.226Z,46.49
2023-03-26T12:48:00.298Z,40.19
2023-03-26T12:50:15.699Z,41.16
2023-03-26T12:52:53.585Z,38.88
2023-03-26T12:55:26.997Z,38.41
2023-03-26T12:57:53.540Z,41.71
2023-03-26T13:00:41.942Z,40.50
2023-03-26T13:03:31.208Z,42.32
2023-03-26T13:06:03.577Z,39.66
2023-03-26T13:08:46.598Z,38.53
2023-03-26T13:11:17.166Z,42.32
2023-03-26T13:14:02.350Z,40.78
2023-03-26T13:16:50.596Z,38.99
2023-03-26T13:19:48.165Z,37.87
2023-03-26T13:22:17.734Z,38.74
2023-03-26T13:25:00.481Z,39.94
2023-03-26T13:27:48.514Z,41.99
2023-03-26T13:30:26.307Z,38.82
2023-03-26T13:33:14.544Z,39.65
2023-03-26T13:35:58.363Z,40.40
2023-03-26T13:38:38.047Z,37.82
2023-03-26T13:41:18.362Z,38.17
2023-03-26T13:43:59.274Z,37.97
2023-03-26T13:46:42.864Z,36.61
2023-03-26T13:49:15.665Z,38.13
2023-03-26T13:51:42.239Z,36.36
2023-03-26T13:54:32.380Z,36.72
2023-03-26T13:57:31.897Z,36.70
2023-03-26T14:00:06.154Z,38.59
2023-03-26T14:02:40.586Z,38.23
2023-03-26T14:05:15.349Z,36.45
2023-03-26T14:07:49.664Z,36.07
2023-03-26T14:10:34.271Z,35.68
2023-03-26T14:13:05.162Z,36.47
2023-03-26T14:15:40.567Z,36.87
2023-03-26T14:18:40.291Z,34.90
2023-03-26T14:21:46.531Z,33.68
2023-03-26T14:24:50.434Z,35.14
2023-03-26T14:27:18.583Z,35.18
2023-03-26T14:30:01.393Z,34.47
2023-03-26T14:32:30.855Z,33.00
2023-03-26T14:35:52.921Z,34.80
2023-03-26T14:38:33.739Z,35.09
2023-03-26T14:41:14.823Z,32.51
2023-03-26T14:44:02.883Z,32.91
2023-03-26T14:47:10.918Z,30.48
2023-03-26T14:50:04.273Z,30.58
2023-03-26T14:53:01.263Z,31.96
2023-03-26T14:55:40.764Z,29.81
2023-03-26T14:58:22.103Z,33.21
2023-03-26T15:01:04.251Z,31.74
2023-03-26T15:03:40.251Z,30.60
2023-03-26T15:06:22.904Z,31.04
2023-03-26T15:08:58.703Z,31.72
2023-03-26T15:11:42.619Z,33.25
2023-03-26T15:14:30.541Z,31.94
2023-03-26T15:17:20.595Z,32.47
2023-03-26T15:20:05.708Z,32.95
2023-03-26T15:22:54.008Z,31.67
2023-03-26T15:25:57.548Z,32.76
2023-03-26T15:29:03.465Z,32.28
2023-03-26T15:31:42.662Z,33.94
2023-03-26T15:34:31.066Z,32.61
2023-03-26T15:37:06.363Z,33.77
2023-03-26T15:40:13.091Z,32.52
2023-03-26T15:42:51.530Z,33.23
2023-03-26T15:45:31.161Z,31.86
2023-03-26T15:48:27.327Z,31.72
2023-03-26T15:50:54.743Z,32.90
2023-03-26T15:53:49.025Z,34.55
2023-03-26T15:56:22.081Z,34.95
2023-03-26T15:59:05.898Z,35.37
2023-03-26T16:01:47.348Z,34.45
2023-03-26T16:04:38.651Z,35.02
2023-03-26T16:07:29.078Z,34.51
2023-03-26T16:10:23.379Z,35.23
2023-03-26T16:13:14.634Z,35.77
2023-03-26T16:15:51.683Z,36.82
2023-03-26T16:18:29.827Z,35.61
2023-03-26T16:21:04.304Z,35.39
2023-03-26T16:23:34.660Z,36.23
2023-03-26T16:26:22.406Z,37.44
2023-03-26T16:29:11.910Z,38.02
2023-03-26T16:32:07.974Z,38.22
2023-03-26T16:34:40.851Z,37.25
2023-03-26T16:37:43.928Z,37.74
2023-03-26T16:40:25.429Z,38.06
2023-03-26T16:43:33.984Z,37.87
2023-03-26T16:46:25.448Z,37.17
2023-03-26T16:48:54.631Z,37.54
2023-03-26T16:51:39.460Z,38.76
2023-03-26T16:54:22.238Z,37.92
2023-03-26T16:56:53.684Z,38.53
2023-03-26T16:59:26.747Z,41.16
2023-03-26T17:02:36.794Z,40.30
2023-03-26T17:05:21.460Z,41.22
2023-03-26T17:08:06.336Z,41.54
2023-03-26T17:10:36.627Z,43.59
2023-03-26T17:13:25.945Z,42.84
2023-03-26T17:15:58.106Z,45.17
2023-03-26T17:18:50.134Z,43.53
2023-03-26T17:21:47.228Z,43.78
2023-03-26T17:24:49.805Z,42.14
2023-03-26T17:27:44.956Z,46.89
2023-03-26T17:30:39.861Z,46.86
2023-03-26T17:33:06.400Z,45.57
2023-03-26T17:35:45.066Z,45.90
2023-03-26T17:38:19.781Z,46.44
2023-03-26T17:40:47.016Z,45.59
2023-03-26T17:43:40.378Z,46.76
2023-03-26T17:46:24.942Z,45.91
2023-03-26T17:49:04.639Z,45.51
2023-03-26T17:52:05.600Z,46.23
2023-03-26T17:54:47.990Z,46.04
2023-03-26T17:57:22.619Z,44.82
2023-03-26T17:59:57.634Z,47.32
2023-03-26T18:02:37.092Z,47.63
2023-03-26T18:05:10.013Z,47.60
2023-03-26T18:08:04.206Z,50.37
2023-03-26T18:10:38.710Z,50.12
2023-03-26T18:13:42.780Z,47.85
2023-03-26T18:16:50.167Z,48.51
2023-03-26T18:19:19.831Z,47.39
2023-03-26T18:21:51.384Z,46.79
2023-03-26T18:24:39.022Z,47.51
2023-03-26T18:27:12.166Z,50.33
2023-03-26T18:29:45.956Z,48.52
2023-03-26T18:32:12.497Z,49.40
2023-03-26T18:34:50.087Z,50.59
2023-03-26T18:37:23.409Z,48.53
2023-03-26T18:40:20.191Z,49.96
2023-03-26T18:43:01.545Z,49.23
2023-03-26T18:45:33.636Z,48.95
2023-03-26T18:48:04.902Z,49.41
2023-03-26T18:50:41.615Z,50.61
2023-03-26T18:53:22.434Z,48.92
2023-03-26T18:55:53.070Z,50.07
2023-03-26T18:58:38.959Z,50.36
2023-03-26T19:01:23.851Z,51.43
2023-03-26T19:03:53.682Z,49.77
2023-03-26T19:06:20.994Z,48.16
2023-03-26T19:08:53.569Z,52.61
2023-03-26T19:11:20.642Z,54.04
2023-03-26T19:13:59.299Z,54.71
2023-03-26T19:16:35.524Z,57.83
2023-03-26T19:19:09.429Z,56.58
2023-03-26T19:21:36.789Z,55.44
2023-03-26T19:24:05.260Z,55.69
2023-03-26T19:26:34.356Z,58.16
2023-03-26T19:29:03.942Z,57.52
2023-03-26T19:31:36.536Z,58.59
2023-03-26T19:34:13.546Z,57.44
2023-03-26T19:37:01.945Z,57.14
2023-03-26T19:39:40.238Z,58.54
2023-03-26T19:42:12.373Z,57.96
2023-03-26T19:44:42.805Z,58.55
2023-03-26T19:47:31.857Z,58.44
2023-03-26T19:50:28.632Z,57.93
2023-03-26T19:53:16.819Z,58.01
2023-03-26T19:56:06.302Z,54.29
2023-03-26T19:58:36.266Z,54.50
2023-03-26T20:01:03.854Z,54.80
2023-03-26T20:03:39.185Z,54.33
2023-03-26T20:06:11.779Z,52.98
2023-03-26T20:08:43.801Z,53.77
2023-03-26T20:11:16.588Z,53.73
2023-03-26T20:13:43.398Z,52.00
2023-03-26T20:16:25.659Z,52.70
2023-03-26T20:18:57.208Z,53.10
2023-03-26T20:21:27.292Z,53.08
2023-03-26T20:23:54.755Z,53.36
2023-03-26T20:26:23.232Z,54.29
2023-03-26T20:28:53.490Z,54.43
2023-03-26T20:31:28.167Z,55.42
2023-03-26T20:33:54.775Z,53.97
2023-03-26T20:36:33.687Z,52.11
2023-03-26T20:39:10.258Z,51.74
2023-03-26T20:41:48.328Z,58.06
2023-03-26T20:44:19.712Z,56.66
2023-03-26T20:46:48.545Z,55.31
2023-03-26T20:49:22.123Z,56.48
2023-03-26T20:51:48.962Z,55.91
2023-03-26T20:54:25.173Z,53.63
2023-03-26T20:56:55.432Z,53.44
2023-03-26T20:59:28.842Z,55.37
2023-03-26T21:02:00.230Z,55.09
2023-03-26T21:04:27.419Z,56.35
2023-03-26T21:07:07.079Z,55.50
2023-03-26T21:09:44.888Z,55.22
2023-03-26T21:12:23.641Z,55.16
2023-03-26T21:14:52.819Z,56.57
2023-03-26T21:17:25.071Z,54.83
2023-03-26T21:20:00.410Z,54.90
2023-03-26T21:22:49.784Z,55.71
2023-03-26T21:25:24.344Z,56.07
2023-03-26T21:28:28.872Z,53.98
2023-03-26T21:31:09.509Z,55.10
2023-03-26T21:33:38.571Z,58.44
2023-03-26T21:36:05.318Z,58.82
2023-03-26T21:38:34.471Z,60.79
2023-03-26T21:41:01.428Z,59.13
2023-03-26T21:43:30.592Z,59.62
2023-03-26T21:46:00.059Z,61.18
2023-03-26T21:48:29.040Z,67.23
2023-03-26T21:51:02.382Z,64.54
2023-03-26T21:53:31.900Z,66.26
2023-03-26T21:55:58.545Z,66.13
2023-03-26T21:58:40.098Z,66.63
2023-03-26T22:01:17.425Z,69.20
2023-03-26T22:03:56.057Z,68.47
2023-03-26T22:06:31.741Z,67.97
2023-03-26T22:08:59.557Z,69.59
2023-03-26T22:11:26.138Z,70.98
2023-03-26T22:13:57.595Z,69.67
2023-03-26T22:16:29.683Z,68.79
2023-03-26T22:19:01.022Z,70.24
2023-03-26T22:21:27.714Z,70.97
2023-03-26T22:23:59.527Z,70.95
2023-03-26T22:26:28.800Z,73.08
2023-03-26T22:28:57.749Z,75.83
2023-03-26T22:31:27.245Z,78.67
2023-03-26T22:33:57.233Z,77.43
2023-03-26T22:36:25.321Z,77.71
2023-03-26T22:38:56.837Z,78.43
2023-03-26T22:41:25.901Z,79.17
2023-03-26T22:44:06.344Z,81.25
2023-03-26T22:46:40.357Z,79.48
2023-03-26T22:49:07.425Z,81.03
2023-03-26T22:51:36.321Z,80.12
2023-03-26T22:54:03.140Z,81.37
2023-03-26T22:56:32.057Z,80.57
2023-03-26T22:59:01.273Z,80.70
2023-03-26T23:01:27.812Z,81.18
2023-03-26T23:03:59.741Z,82.87
2023-03-26T23:06:29.329Z,83.33
2023-03-26T23:08:58.934Z,83.49
2023-03-26T23:11:25.553Z,83.19
2023-03-26T23:13:52.446Z,83.52
2023-03-26T23:16:21.923Z,82.77
2023-03-26T23:18:48.904Z,82.89
2023-03-26T23:21:20.317Z,82.52
2023-03-26T23:23:51.660Z,82.93
2023-03-26T23:26:24.129Z,84.26
2023-03-26T23:28:54.029Z,85.15
2023-03-26T23:31:25.335Z,85.56
2023-03-26T23:33:51.930Z,85.66
2023-03-26T23:36:20.127Z,85.12
2023-03-26T23:38:48.313Z,84.74
2023-03-26T23:41:17.104Z,85.01
2023-03-26T23:43:53.521Z,84.44
2023-03-26T23:46:30.213Z,85.39
2023-03-26T23:48:59.964Z,85.20
2023-03-26T23:51:30.346Z,85.45
2023-03-26T23:53:59.774Z,85.42
2023-03-26T23:56:29.802Z,85.43
2023-03-26T23:59:01.002Z,84.98
